Terminal Aerodrome Forecast
Issued by NWS Kansas City/Pleasant Hill, MO

Home | Current Version | Previous Version | Text Only | Print | Product List | Glossary On
Versions: 1 2 3 4 5 6 7 8 9 10 11 12 13 14 15
000
FTUS43 KEAX 271128
TAFMCI
TAF
KMCI 271128Z 2712/2812 03009KT P6SM BKN015
      TEMPO 2712/2714 BKN006
     FM271600 03009KT P6SM SCT035
     FM280300 03006KT P6SM SKC=

USA.gov is the U.S. government's official web portal to all federal, state and local government web resources and services.